Latest Coastal Weather Observations for Portland Airport

IDS60701

Issued at 9:55 pm CST Wednesday 20 August 2014 (issued every 10 minutes, with the page automatically refreshed every 10 minutes)

About coastal observations | Map of coastal stations | Coastal observations for SA | Marine services | Other Formats
Station Details ID: 090171 Name: CASHMORE AIRPORT Lat: -38.31 Lon: 141.47 Height: 80.9 m
Data from the previous 72 hours. | See also: Recent months at Portland Airport
Date/Time
CST
Temp

°C
Wind Pressure Rain
since 9am
mm
Weather Cloud Vis
km
Sea
Height
m
Swell
Dir
 
Speed
knots
Gust
knots
hPa Trend Height
m
Period
s
Dir
20/09:30pm 9.4 SE 5 7 1028.7 - 0.4 - Partly cloudy 10 - - - -
20/09:21pm 9.2 ESE 5 8 1028.8 - 0.4 - Partly cloudy 9 - - - -
20/09:00pm 9.1 ESE 4 8 1028.8 - 0.2 - Partly cloudy 5 - - - -
20/08:57pm 9.1 ESE 4 7 1028.8 - 0.2 - Partly cloudy 6 - - - -
20/08:30pm 9.0 ESE 3 5 1028.7 - 0.2 - Cloudy 10 - - - -
20/08:00pm 8.5 CALM 0 0 1028.7 - 0.2 - Cloudy 10 - - - -
20/07:30pm 9.1 CALM 0 0 1028.7 - 0.2 - Cloudy 10 - - - -
20/07:00pm 9.1 ESE 3 5 1028.8 - 0.2 - Cloudy 10 - - - -
20/06:30pm 9.4 CALM 0 0 1028.8 - 0.2 - Partly cloudy 10 - - - -
20/06:00pm 9.6 SE 4 6 1028.7 - 0.2 - Partly cloudy 10 - - - -
20/05:58pm 9.7 SE 5 6 1028.7 - 0.2 - Partly cloudy 10 - - - -
20/05:37pm 10.4 SSE 5 10 1028.6 - 0.0 - Partly cloudy 6 - - - -
20/05:30pm 10.4 SSE 4 5 1028.5 - 0.0 - Cloudy 10 - - - -
20/05:00pm 10.7 S 5 6 1028.3 - 0.0 - Partly cloudy 10 - - - -
20/04:30pm 10.9 S 7 11 1028.2 - 0.0 - Partly cloudy 9 - - - -
20/04:00pm 11.3 SE 6 9 1028.0 - 0.0 - Partly cloudy 10 - - - -
20/03:30pm 11.9 SE 7 10 1027.9 - 0.0 - Partly cloudy 10 - - - -
20/03:00pm 11.9 SE 7 11 1027.8 - 0.0 - Partly cloudy 10 - - - -
20/02:30pm 12.8 ESE 8 12 1027.6 - 0.0 - Mostly clear 10 - - - -
20/02:00pm 12.6 SE 7 10 1027.6 - 0.0 - Partly cloudy 10 - - - -
20/01:30pm 12.7 ESE 6 11 1027.5 - 0.0 - Partly cloudy 10 - - - -
20/01:00pm 12.9 ESE 7 11 1027.7 - 0.0 - Partly cloudy 10 - - - -
20/12:30pm 13.0 ESE 7 10 1027.9 - 0.0 - Partly cloudy 10 - - - -
20/12:00pm 12.3 SE 7 10 1028.2 - 0.0 - Partly cloudy 10 - - - -
20/11:30am 11.4 SSE 7 11 1028.5 - 0.0 - Cloudy 10 - - - -
20/11:00am 12.6 SE 8 11 1028.6 - 0.0 - Cloudy 10 - - - -
20/10:30am 13.0 SSE 8 11 1028.6 - 0.0 - Partly cloudy 10 - - - -
20/10:00am 12.8 SSE 7 11 1028.5 - 0.0 - Partly cloudy 10 - - - -
20/09:30am 11.1 SSE 8 12 1028.6 - 0.0 - Cloudy 10 - - - -
20/09:00am 11.6 SSE 6 10 1028.3 - 0.0 - - 10 - - - -
20/08:30am 9.8 CALM 0 2 1028.3 - 0.0 - Partly cloudy 10 - - - -
20/08:00am 9.3 SSE 4 7 1028.1 - 0.0 - Partly cloudy 10 - - - -
20/07:30am 8.4 CALM 0 2 1027.8 - 0.0 - Cloudy 10 - - - -
20/07:00am 8.7 SSE 3 5 1027.5 - 0.0 - Cloudy 10 - - - -
20/06:30am 9.5 SE 5 6 1027.2 - 0.0 - Cloudy 10 - - - -
20/06:00am 9.7 SE 5 8 1026.9 - 0.0 - Cloudy 10 - - - -
20/05:30am 9.6 SE 5 7 1026.7 - 0.0 - Cloudy 10 - - - -
20/05:00am 8.8 SSE 3 5 1026.7 - 0.0 - Cloudy 10 - - - -
20/04:30am 8.4 CALM 0 0 1026.5 - 0.0 - Cloudy 10 - - - -
20/04:00am 8.4 E 1 3 1026.4 - 0.0 - Cloudy 10 - - - -
20/03:30am 8.3 CALM 0 0 1026.5 - 0.0 - Cloudy 10 - - - -
20/03:00am 8.2 CALM 0 0 1026.5 - 0.0 - Cloudy 10 - - - -
20/02:30am 8.0 SE 3 4 1026.7 - 0.0 - Cloudy 10 - - - -
20/02:00am 7.8 CALM 0 0 1027.0 - 0.0 - Cloudy 10 - - - -
20/01:30am 7.8 ESE 0 0 1026.9 - 0.0 - Partly cloudy 10 - - - -
20/01:00am 8.4 CALM 0 0 1027.1 - 0.0 - Cloudy 10 - - - -
20/12:30am 8.5 CALM 0 0 1027.2 - 0.0 - Cloudy 10 - - - -
20/12:00am 8.7 ESE 3 4 1027.2 - 0.0 - Partly cloudy 10 - - - -
 
Date/Time
CST
Temp

°C
Wind Pressure Rain
since 9am
mm
Weather Cloud Vis
km
Sea
Height
m
Swell
Dir
 
Speed
knots
Gust
knots
hPa Trend Height
m
Period
s
Dir
19/11:30pm 8.8 SE 7 9 1027.2 - 0.0 - Cloudy 10 - - - -
19/11:00pm 8.0 CALM 0 0 1027.1 - 0.0 - Cloudy 10 - - - -
19/10:30pm 7.9 W 3 4 1027.3 - 0.0 - Cloudy 10 - - - -
19/10:00pm 7.6 W 1 3 1027.4 - 0.0 - Cloudy 10 - - - -
19/09:30pm 8.0 SSE 1 3 1027.4 - 0.0 - Partly cloudy 10 - - - -
19/09:00pm 8.7 CALM 0 0 1027.4 - 0.0 - Partly cloudy 10 - - - -
19/08:55pm 8.7 CALM 0 0 1027.4 - 0.0 - Partly cloudy 10 - - - -
19/08:44pm 8.8 SSE 5 7 1027.5 - 0.0 - Partly cloudy 6 - - - -
19/08:30pm 8.8 SSE 5 7 1027.5 - 0.0 - Mostly cloudy 10 - - - -
19/08:00pm 8.7 S 2 4 1027.2 - 0.0 - Partly cloudy 10 - - - -
19/07:30pm 8.3 WSW 4 4 1027.1 - 0.0 - Partly cloudy 10 - - - -
19/07:00pm 8.2 SW 2 4 1027.1 - 0.0 - Partly cloudy 10 - - - -
19/06:30pm 8.9 SW 4 5 1026.9 - 0.0 - Partly cloudy 10 - - - -
19/06:00pm 9.6 SW 5 7 1026.6 - 0.0 - Partly cloudy 10 - - - -
19/05:30pm 10.4 SSW 4 6 1026.3 - 0.0 - Cloudy 10 - - - -
19/05:00pm 10.8 SSE 4 6 1026.1 - 0.0 - Cloudy 10 - - - -
19/04:30pm 11.1 SSE 4 6 1025.9 - 0.0 - Cloudy 10 - - - -
19/04:00pm 11.4 S 5 7 1025.8 - 0.0 - Cloudy 10 - - - -
19/03:30pm 11.9 S 5 8 1025.7 - 0.0 - Cloudy 10 - - - -
19/03:00pm 11.8 SE 5 7 1025.8 - 0.0 - Cloudy 10 - - - -
19/02:30pm 11.8 ESE 5 8 1025.8 - 0.0 - Cloudy 10 - - - -
19/02:00pm 12.1 ESE 5 8 1025.6 - 0.0 - Cloudy 10 - - - -
19/01:30pm 12.1 SE 6 10 1025.6 - 0.0 - Cloudy 10 - - - -
19/01:00pm 12.1 S 7 11 1025.8 - 0.0 - Cloudy 10 - - - -
19/12:30pm 12.3 ESE 7 12 1026.2 - 0.0 - Cloudy 10 - - - -
19/12:00pm 12.4 SE 6 11 1026.5 - 0.0 - Cloudy 10 - - - -
19/11:30am 12.0 SSE 7 12 1026.9 - 0.0 - Mostly cloudy 10 - - - -
19/11:00am 11.5 SSE 6 10 1026.9 - 0.0 - Partly cloudy 10 - - - -
19/10:30am 11.4 S 8 11 1027.1 - 0.0 - Cloudy 10 - - - -
19/10:00am 11.4 SSE 6 10 1026.9 - 0.0 - Cloudy 10 - - - -
19/09:30am 11.0 SSE 5 7 1026.9 - 0.0 - Cloudy 10 - - - -
19/09:00am 10.5 SSE 7 9 1026.8 - 0.0 - Cloudy 10 - - - -
19/08:30am 10.3 SSE 6 9 1026.7 - 0.0 - Cloudy 10 - - - -
19/08:00am 10.0 SSE 6 9 1026.4 - 0.0 - Cloudy 10 - - - -
19/07:30am 9.8 SSE 5 8 1026.2 - 0.0 - Cloudy 10 - - - -
19/07:00am 9.6 SSE 4 6 1025.7 - 0.0 - Cloudy 10 - - - -
19/06:30am 9.3 SSE 3 4 1025.7 - 0.0 - Cloudy 10 - - - -
19/06:00am 9.6 SSE 5 7 1025.3 - 0.0 - Cloudy 10 - - - -
19/05:30am 9.6 SE 5 7 1025.4 - 0.0 - Cloudy 10 - - - -
19/05:00am 9.7 SE 5 8 1025.0 - 0.0 - Cloudy 10 - - - -
19/04:30am 9.4 SE 6 8 1025.1 - 0.0 - Cloudy 10 - - - -
19/04:00am 9.1 SE 4 6 1024.8 - 0.0 - Partly cloudy 10 - - - -
19/03:30am 9.4 SE 6 11 1024.9 - 0.0 - Partly cloudy 10 - - - -
19/03:14am 9.2 SSE 5 8 1024.8 - 0.0 - Partly cloudy 10 - - - -
19/03:01am 9.3 SSE 7 10 1024.8 - 0.0 - Partly cloudy 6 - - - -
19/03:00am 9.3 SSE 7 10 1024.8 - 0.0 - Partly cloudy 7 - - - -
19/02:30am 9.5 SE 5 7 1025.1 - 0.0 - Cloudy 10 - - - -
19/02:00am 9.8 S 6 9 1025.0 - 0.0 - Cloudy 10 - - - -
19/01:30am 9.6 S 5 8 1025.3 - 0.0 - Partly cloudy 10 - - - -
19/01:00am 8.5 S 4 6 1025.2 - 0.0 - Partly cloudy 10 - - - -
19/12:30am 8.3 SSE 4 6 1025.4 - 0.0 - Partly cloudy 10 - - - -
19/12:00am 9.1 SSE 5 7 1025.4 - 0.0 - Partly cloudy 10 - - - -
 
Date/Time
CST
Temp

°C
Wind Pressure Rain
since 9am
mm
Weather Cloud Vis
km
Sea
Height
m
Swell
Dir
 
Speed
knots
Gust
knots
hPa Trend Height
m
Period
s
Dir
18/11:30pm 9.3 SE 4 7 1025.6 - 0.0 - Mostly cloudy 10 - - - -
18/11:00pm 9.5 ESE 5 8 1025.5 - 0.0 - Partly cloudy 10 - - - -
18/10:30pm 9.6 SE 4 6 1025.7 - 0.0 - Partly cloudy 10 - - - -
18/10:00pm 9.7 SSE 4 7 1025.6 - 0.0 - Cloudy 10 - - - -
18/09:30pm 10.0 SSE 7 13 1025.7 - 0.0 - Cloudy 10 - - - -
18/09:00pm 9.9 S 5 7 1025.5 - 0.0 - Cloudy 10 - - - -
18/08:30pm 9.4 SSE 4 7 1025.5 - 0.0 - Cloudy 10 - - - -
18/08:00pm 9.0 SSE 5 9 1025.2 - 0.0 - Cloudy 10 - - - -
18/07:30pm 8.6 SSE 5 7 1025.1 - 0.0 - Partly cloudy 10 - - - -
18/07:00pm 8.9 SE 6 8 1024.6 - 0.0 - Partly cloudy 10 - - - -
18/06:30pm 9.2 SSE 6 10 1024.6 - 0.0 - Partly cloudy 10 - - - -
18/06:00pm 8.8 SSE 4 5 1024.1 - 0.0 - Partly cloudy 10 - - - -
18/05:30pm 9.1 S 4 7 1024.1 - 0.0 - Mostly cloudy 10 - - - -
18/05:00pm 9.7 S 7 12 1023.7 - 0.0 - Partly cloudy 10 - - - -
18/04:30pm 10.7 SSE 8 12 1023.6 - 0.0 - Partly cloudy 10 - - - -
18/04:00pm 10.2 SSE 9 13 1023.4 - 0.0 - Partly cloudy 10 - - - -
18/03:30pm 10.5 SSE 10 15 1023.3 - 0.0 - Partly cloudy 10 - - - -
18/03:00pm 10.8 S 8 13 1023.2 - 0.0 - Partly cloudy 10 - - - -
18/02:30pm 10.8 S 8 15 1023.3 - 0.0 - Cloudy 10 - - - -
18/02:00pm 10.9 S 6 9 1023.2 - 0.0 - Partly cloudy 10 - - - -
18/01:30pm 10.7 S 11 17 1023.5 - 0.0 - Partly cloudy 10 - - - -
18/01:00pm 11.1 SSE 9 13 1023.4 - 0.0 - Partly cloudy 10 - - - -
18/12:30pm 10.7 S 9 15 1023.7 - 0.0 - Partly cloudy 10 - - - -
18/12:00pm 11.4 SSE 8 12 1023.8 - 0.0 - Cloudy 10 - - - -
18/11:30am 10.9 SSE 8 13 1024.5 - 0.0 - Cloudy 10 - - - -
18/11:00am 10.8 SSE 7 11 1024.5 - 0.0 - Partly cloudy 10 - - - -
18/10:30am 10.6 S 8 12 1024.6 - 0.0 - Partly cloudy 10 - - - -
18/10:00am 10.5 SSE 9 14 1024.4 - 0.0 - Cloudy 10 - - - -
18/09:30am 10.7 SSE 7 11 1024.5 - 0.0 - Cloudy 10 - - - -
18/09:00am 10.1 SSE 6 8 1024.3 - 0.0 - Cloudy 10 - - - -
18/08:30am 9.7 SSE 5 7 1024.4 - 0.0 - Cloudy 10 - - - -
18/08:00am 9.4 SE 6 8 1024.2 - 0.0 - Cloudy 10 - - - -
18/07:30am 9.2 SE 6 8 1024.2 - 0.0 - Cloudy 10 - - - -
18/07:00am 9.2 S 7 11 1023.9 - 0.0 - Cloudy 10 - - - -
18/06:30am 9.4 SE 8 13 1023.8 - 0.0 - Cloudy 10 - - - -
18/06:00am 9.4 SSE 7 12 1023.4 - 0.0 - Cloudy 10 - - - -
18/05:30am 9.4 SSE 7 11 1023.2 - 0.0 - Cloudy 10 - - - -
18/05:00am 9.6 S 6 10 1023.0 - 0.0 - Cloudy 10 - - - -
18/04:30am 9.5 SE 7 11 1022.9 - 0.0 - Cloudy 10 - - - -
18/04:00am 9.7 S 8 12 1022.6 - 0.0 - Cloudy 10 - - - -
18/03:30am 9.7 S 7 11 1022.6 - 0.0 - Cloudy 10 - - - -
18/03:00am 9.8 S 6 13 1022.4 - 0.0 - Cloudy 10 - - - -
18/02:30am 9.9 SSE 5 8 1022.6 - 0.0 - Cloudy 10 - - - -
18/02:00am 9.8 S 5 8 1022.6 - 0.0 - Cloudy 10 - - - -
18/01:30am 9.9 S 5 9 1022.8 - 0.0 - Cloudy 10 - - - -
18/01:00am 9.8 SE 6 8 1022.9 - 0.0 - Cloudy 10 - - - -
18/12:30am 10.0 SE 8 11 1022.9 - 0.0 - Cloudy 10 - - - -
18/12:00am 9.9 SE 7 9 1022.8 - 0.0 - Cloudy 10 - - - -
 
Date/Time
CST
Temp

°C
Wind Pressure Rain
since 9am
mm
Weather Cloud Vis
km
Sea
Height
m
Swell
Dir
 
Speed
knots
Gust
knots
hPa Trend Height
m
Period
s
Dir
17/11:30pm 10.1 SSE 6 9 1022.8 - 0.0 - Cloudy 10 - - - -
17/11:00pm 10.3 S 6 9 1022.7 - 0.0 - Cloudy 10 - - - -
17/10:30pm 10.1 SE 7 12 1022.9 - 0.0 - Cloudy 10 - - - -
17/10:00pm 10.1 SE 6 8 1022.7 - 0.0 - Cloudy 10 - - - -
17/09:30pm 10.1 SE 6 8 1022.7 - 0.0 - Cloudy 10 - - - -

Other Formats:

Comma delimited format used in spreadsheet applications
http://www.bom.gov.au/fwo/IDS60701/IDS60701.94828.axf

JavaScript Object Notation format (JSON) in row-major order
http://www.bom.gov.au/fwo/IDS60701/IDS60701.94828.json